sensor_id;sensor_type;location;lat;lon;timestamp;temperature;humidity
24902;DHT22;31328;51.402;0.016;2023-01-28T00:00:07;4.00;99.90
24902;DHT22;31328;51.402;0.016;2023-01-28T00:02:34;4.00;99.90
24902;DHT22;31328;51.402;0.016;2023-01-28T00:05:02;4.00;99.90
24902;DHT22;31328;51.402;0.016;2023-01-28T00:07:28;4.10;99.90
24902;DHT22;31328;51.402;0.016;2023-01-28T00:09:55;4.10;99.90
24902;DHT22;31328;51.402;0.016;2023-01-28T00:12:21;4.10;99.90
24902;DHT22;31328;51.402;0.016;2023-01-28T00:14:47;4.10;99.90
24902;DHT22;31328;51.402;0.016;2023-01-28T00:17:13;4.20;99.90
24902;DHT22;31328;51.402;0.016;2023-01-28T00:19:40;4.20;99.90
24902;DHT22;31328;51.402;0.016;2023-01-28T00:22:06;4.20;99.90
24902;DHT22;31328;51.402;0.016;2023-01-28T00:24:33;4.30;99.90
24902;DHT22;31328;51.402;0.016;2023-01-28T00:26:59;4.30;99.90
24902;DHT22;31328;51.402;0.016;2023-01-28T00:29:26;4.50;99.90
24902;DHT22;31328;51.402;0.016;2023-01-28T00:31:52;4.30;99.90
24902;DHT22;31328;51.402;0.016;2023-01-28T00:34:18;4.30;99.90
24902;DHT22;31328;51.402;0.016;2023-01-28T00:36:46;4.40;99.90
24902;DHT22;31328;51.402;0.016;2023-01-28T00:39:24;4.40;99.90
24902;DHT22;31328;51.402;0.016;2023-01-28T00:41:51;4.40;99.90
24902;DHT22;31328;51.402;0.016;2023-01-28T00:44:19;4.40;99.90
24902;DHT22;31328;51.402;0.016;2023-01-28T00:46:45;4.40;99.90
24902;DHT22;31328;51.402;0.016;2023-01-28T00:49:12;4.40;99.90
24902;DHT22;31328;51.402;0.016;2023-01-28T00:51:40;4.40;99.90
24902;DHT22;31328;51.402;0.016;2023-01-28T00:54:08;4.50;99.90
24902;DHT22;31328;51.402;0.016;2023-01-28T00:56:35;4.50;99.90
24902;DHT22;31328;51.402;0.016;2023-01-28T00:59:02;4.40;99.90
24902;DHT22;31328;51.402;0.016;2023-01-28T01:01:28;4.40;99.90
24902;DHT22;31328;51.402;0.016;2023-01-28T01:03:54;4.50;99.90
24902;DHT22;31328;51.402;0.016;2023-01-28T01:06:34;4.50;99.90
24902;DHT22;31328;51.402;0.016;2023-01-28T01:09:03;4.50;99.90
24902;DHT22;31328;51.402;0.016;2023-01-28T01:11:30;4.50;99.90
24902;DHT22;31328;51.402;0.016;2023-01-28T01:13:58;4.50;99.90
24902;DHT22;31328;51.402;0.016;2023-01-28T01:16:27;4.50;99.90
24902;DHT22;31328;51.402;0.016;2023-01-28T01:18:54;4.50;99.90
24902;DHT22;31328;51.402;0.016;2023-01-28T01:21:24;4.50;99.90
24902;DHT22;31328;51.402;0.016;2023-01-28T01:23:51;4.50;99.90
24902;DHT22;31328;51.402;0.016;2023-01-28T01:26:17;4.50;99.90
24902;DHT22;31328;51.402;0.016;2023-01-28T01:28:44;4.50;99.90
24902;DHT22;31328;51.402;0.016;2023-01-28T01:31:18;4.50;99.90
24902;DHT22;31328;51.402;0.016;2023-01-28T01:33:46;4.60;99.90
24902;DHT22;31328;51.402;0.016;2023-01-28T01:36:14;4.60;99.90
24902;DHT22;31328;51.402;0.016;2023-01-28T01:38:41;4.60;99.90
24902;DHT22;31328;51.402;0.016;2023-01-28T01:41:19;4.60;99.90
24902;DHT22;31328;51.402;0.016;2023-01-28T01:43:54;4.60;99.90
24902;DHT22;31328;51.402;0.016;2023-01-28T01:48:56;4.70;99.90
24902;DHT22;31328;51.402;0.016;2023-01-28T01:51:30;4.70;99.90
24902;DHT22;31328;51.402;0.016;2023-01-28T01:53:58;4.70;99.90
24902;DHT22;31328;51.402;0.016;2023-01-28T01:56:31;4.70;99.90
24902;DHT22;31328;51.402;0.016;2023-01-28T01:58:59;4.70;99.90
24902;DHT22;31328;51.402;0.016;2023-01-28T02:01:28;4.70;99.90
24902;DHT22;31328;51.402;0.016;2023-01-28T02:04:16;4.70;99.90
24902;DHT22;31328;51.402;0.016;2023-01-28T02:06:46;4.70;99.90
24902;DHT22;31328;51.402;0.016;2023-01-28T02:09:28;4.70;99.90
24902;DHT22;31328;51.402;0.016;2023-01-28T02:12:01;4.70;99.90
24902;DHT22;31328;51.402;0.016;2023-01-28T02:14:31;4.70;99.90
24902;DHT22;31328;51.402;0.016;2023-01-28T02:17:00;4.70;99.90
24902;DHT22;31328;51.402;0.016;2023-01-28T02:19:36;4.70;99.90
24902;DHT22;31328;51.402;0.016;2023-01-28T02:22:26;4.70;99.90
24902;DHT22;31328;51.402;0.016;2023-01-28T02:31:05;4.80;99.90
24902;DHT22;31328;51.402;0.016;2023-01-28T02:36:52;4.80;99.90
24902;DHT22;31328;51.402;0.016;2023-01-28T02:39:24;4.80;99.90
24902;DHT22;31328;51.402;0.016;2023-01-28T02:42:04;4.80;99.90
24902;DHT22;31328;51.402;0.016;2023-01-28T02:44:33;4.80;99.90
24902;DHT22;31328;51.402;0.016;2023-01-28T02:47:00;4.90;99.90
24902;DHT22;31328;51.402;0.016;2023-01-28T02:49:56;4.80;99.90
24902;DHT22;31328;51.402;0.016;2023-01-28T03:01:11;4.80;99.90
24902;DHT22;31328;51.402;0.016;2023-01-28T03:03:53;4.80;99.90
24902;DHT22;31328;51.402;0.016;2023-01-28T03:06:46;4.80;99.90
24902;DHT22;31328;51.402;0.016;2023-01-28T03:09:16;4.80;99.90
24902;DHT22;31328;51.402;0.016;2023-01-28T03:12:07;4.80;99.90
24902;DHT22;31328;51.402;0.016;2023-01-28T03:14:57;4.80;99.90
24902;DHT22;31328;51.402;0.016;2023-01-28T03:24:20;4.80;99.90
24902;DHT22;31328;51.402;0.016;2023-01-28T03:33:50;4.80;99.90
24902;DHT22;31328;51.402;0.016;2023-01-28T03:36:36;4.90;99.90
24902;DHT22;31328;51.402;0.016;2023-01-28T03:39:40;4.90;99.90
24902;DHT22;31328;51.402;0.016;2023-01-28T03:42:11;4.90;99.90
24902;DHT22;31328;51.402;0.016;2023-01-28T03:45:01;4.90;99.90
24902;DHT22;31328;51.402;0.016;2023-01-28T03:47:30;4.90;99.90
24902;DHT22;31328;51.402;0.016;2023-01-28T03:49:57;4.90;99.90
24902;DHT22;31328;51.402;0.016;2023-01-28T03:52:29;4.90;99.90
24902;DHT22;31328;51.402;0.016;2023-01-28T03:55:09;5.00;99.90
24902;DHT22;31328;51.402;0.016;2023-01-28T03:57:40;5.00;99.90
24902;DHT22;31328;51.402;0.016;2023-01-28T04:00:07;4.90;99.90
24902;DHT22;31328;51.402;0.016;2023-01-28T04:02:40;5.00;99.90
24902;DHT22;31328;51.402;0.016;2023-01-28T04:05:09;5.00;99.90
24902;DHT22;31328;51.402;0.016;2023-01-28T04:07:41;5.00;99.90
24902;DHT22;31328;51.402;0.016;2023-01-28T04:10:27;5.00;99.90
24902;DHT22;31328;51.402;0.016;2023-01-28T04:12:57;5.00;99.90
24902;DHT22;31328;51.402;0.016;2023-01-28T04:15:25;5.00;99.90
24902;DHT22;31328;51.402;0.016;2023-01-28T04:17:53;5.10;99.90
24902;DHT22;31328;51.402;0.016;2023-01-28T04:20:25;5.10;99.90
24902;DHT22;31328;51.402;0.016;2023-01-28T04:22:51;5.10;99.90
24902;DHT22;31328;51.402;0.016;2023-01-28T04:25:20;5.10;99.90
24902;DHT22;31328;51.402;0.016;2023-01-28T04:27:46;5.10;99.90
24902;DHT22;31328;51.402;0.016;2023-01-28T04:30:19;5.10;99.90
24902;DHT22;31328;51.402;0.016;2023-01-28T04:33:09;5.10;99.90
24902;DHT22;31328;51.402;0.016;2023-01-28T04:35:45;5.10;99.90
24902;DHT22;31328;51.402;0.016;2023-01-28T04:38:30;5.10;99.90
24902;DHT22;31328;51.402;0.016;2023-01-28T04:41:04;5.20;99.90
24902;DHT22;31328;51.402;0.016;2023-01-28T04:43:33;5.10;99.90
24902;DHT22;31328;51.402;0.016;2023-01-28T04:46:18;5.20;99.90
24902;DHT22;31328;51.402;0.016;2023-01-28T04:49:10;5.10;99.90
24902;DHT22;31328;51.402;0.016;2023-01-28T04:51:46;5.20;99.90
24902;DHT22;31328;51.402;0.016;2023-01-28T04:54:18;5.10;99.90
24902;DHT22;31328;51.402;0.016;2023-01-28T04:56:44;5.20;99.90
24902;DHT22;31328;51.402;0.016;2023-01-28T04:59:11;5.10;99.90
24902;DHT22;31328;51.402;0.016;2023-01-28T05:01:38;5.10;99.90
24902;DHT22;31328;51.402;0.016;2023-01-28T05:04:05;5.10;99.90
24902;DHT22;31328;51.402;0.016;2023-01-28T05:06:34;5.10;99.90
24902;DHT22;31328;51.402;0.016;2023-01-28T05:09:10;5.20;99.90
24902;DHT22;31328;51.402;0.016;2023-01-28T05:11:36;5.10;99.90
24902;DHT22;31328;51.402;0.016;2023-01-28T05:14:04;5.10;99.90
24902;DHT22;31328;51.402;0.016;2023-01-28T05:16:53;5.10;99.90
24902;DHT22;31328;51.402;0.016;2023-01-28T05:19:20;5.10;99.90
24902;DHT22;31328;51.402;0.016;2023-01-28T05:21:46;5.10;99.90
24902;DHT22;31328;51.402;0.016;2023-01-28T05:24:28;5.10;99.90
24902;DHT22;31328;51.402;0.016;2023-01-28T05:26:54;5.10;99.90
24902;DHT22;31328;51.402;0.016;2023-01-28T05:29:21;5.10;99.90
24902;DHT22;31328;51.402;0.016;2023-01-28T05:31:47;5.10;99.90
24902;DHT22;31328;51.402;0.016;2023-01-28T05:34:15;5.10;99.90
24902;DHT22;31328;51.402;0.016;2023-01-28T05:36:42;5.10;99.90
24902;DHT22;31328;51.402;0.016;2023-01-28T05:39:28;5.10;99.90
24902;DHT22;31328;51.402;0.016;2023-01-28T05:41:55;5.20;99.90
24902;DHT22;31328;51.402;0.016;2023-01-28T05:44:21;5.20;99.90
24902;DHT22;31328;51.402;0.016;2023-01-28T05:47:08;5.20;99.90
24902;DHT22;31328;51.402;0.016;2023-01-28T05:49:50;5.20;99.90
24902;DHT22;31328;51.402;0.016;2023-01-28T05:52:39;5.20;99.90
24902;DHT22;31328;51.402;0.016;2023-01-28T05:55:11;5.20;99.90
24902;DHT22;31328;51.402;0.016;2023-01-28T05:57:37;5.20;99.90
24902;DHT22;31328;51.402;0.016;2023-01-28T06:00:05;5.20;99.90
24902;DHT22;31328;51.402;0.016;2023-01-28T06:02:41;5.20;99.90
24902;DHT22;31328;51.402;0.016;2023-01-28T06:05:10;5.20;99.90
24902;DHT22;31328;51.402;0.016;2023-01-28T06:07:36;5.10;99.90
24902;DHT22;31328;51.402;0.016;2023-01-28T06:10:03;5.10;99.90
24902;DHT22;31328;51.402;0.016;2023-01-28T06:12:30;5.10;99.90
24902;DHT22;31328;51.402;0.016;2023-01-28T06:15:19;5.10;99.90
24902;DHT22;31328;51.402;0.016;2023-01-28T06:18:05;5.10;99.90
24902;DHT22;31328;51.402;0.016;2023-01-28T06:20:34;5.10;99.90
24902;DHT22;31328;51.402;0.016;2023-01-28T06:23:00;5.10;99.90
24902;DHT22;31328;51.402;0.016;2023-01-28T06:25:27;5.10;99.90
24902;DHT22;31328;51.402;0.016;2023-01-28T06:27:54;5.10;99.90
24902;DHT22;31328;51.402;0.016;2023-01-28T06:30:20;5.10;99.90
24902;DHT22;31328;51.402;0.016;2023-01-28T06:32:52;5.10;99.90
24902;DHT22;31328;51.402;0.016;2023-01-28T06:35:18;5.10;99.90
24902;DHT22;31328;51.402;0.016;2023-01-28T06:37:44;5.10;99.90
24902;DHT22;31328;51.402;0.016;2023-01-28T06:40:11;5.10;99.90
24902;DHT22;31328;51.402;0.016;2023-01-28T06:42:38;5.10;99.90
24902;DHT22;31328;51.402;0.016;2023-01-28T06:45:04;5.10;99.90
24902;DHT22;31328;51.402;0.016;2023-01-28T06:47:31;5.10;99.90
24902;DHT22;31328;51.402;0.016;2023-01-28T06:49:57;5.10;99.90
24902;DHT22;31328;51.402;0.016;2023-01-28T06:52:23;5.10;99.90
24902;DHT22;31328;51.402;0.016;2023-01-28T06:54:50;5.10;99.90
24902;DHT22;31328;51.402;0.016;2023-01-28T06:57:16;5.10;99.90
24902;DHT22;31328;51.402;0.016;2023-01-28T06:59:42;5.10;99.90
24902;DHT22;31328;51.402;0.016;2023-01-28T07:02:10;5.10;99.90
24902;DHT22;31328;51.402;0.016;2023-01-28T07:04:36;5.10;99.90
24902;DHT22;31328;51.402;0.016;2023-01-28T07:07:03;5.10;99.90
24902;DHT22;31328;51.402;0.016;2023-01-28T07:09:29;5.10;99.90
24902;DHT22;31328;51.402;0.016;2023-01-28T07:11:55;5.10;99.90
24902;DHT22;31328;51.402;0.016;2023-01-28T07:14:22;5.10;99.90
24902;DHT22;31328;51.402;0.016;2023-01-28T07:16:48;5.20;99.90
24902;DHT22;31328;51.402;0.016;2023-01-28T07:19:14;5.10;99.90
24902;DHT22;31328;51.402;0.016;2023-01-28T07:21:41;5.10;99.90
24902;DHT22;31328;51.402;0.016;2023-01-28T07:24:07;5.20;99.90
24902;DHT22;31328;51.402;0.016;2023-01-28T07:26:33;5.20;99.90
24902;DHT22;31328;51.402;0.016;2023-01-28T07:29:00;5.10;99.90
24902;DHT22;31328;51.402;0.016;2023-01-28T07:31:26;5.10;99.90
24902;DHT22;31328;51.402;0.016;2023-01-28T07:33:53;5.10;99.90
24902;DHT22;31328;51.402;0.016;2023-01-28T07:36:19;5.10;99.90
24902;DHT22;31328;51.402;0.016;2023-01-28T07:38:45;5.10;99.90
24902;DHT22;31328;51.402;0.016;2023-01-28T07:41:12;5.10;99.90
24902;DHT22;31328;51.402;0.016;2023-01-28T07:43:38;5.10;99.90
24902;DHT22;31328;51.402;0.016;2023-01-28T07:46:04;5.10;99.90
24902;DHT22;31328;51.402;0.016;2023-01-28T07:48:30;5.00;99.90
24902;DHT22;31328;51.402;0.016;2023-01-28T07:50:58;5.00;99.90
24902;DHT22;31328;51.402;0.016;2023-01-28T07:53:25;5.00;99.90
24902;DHT22;31328;51.402;0.016;2023-01-28T07:55:51;5.00;99.90
24902;DHT22;31328;51.402;0.016;2023-01-28T07:58:17;5.00;99.90
24902;DHT22;31328;51.402;0.016;2023-01-28T08:00:44;4.90;99.90
24902;DHT22;31328;51.402;0.016;2023-01-28T08:03:13;4.90;99.90
24902;DHT22;31328;51.402;0.016;2023-01-28T08:05:45;5.00;99.90
24902;DHT22;31328;51.402;0.016;2023-01-28T08:08:12;4.90;99.90
24902;DHT22;31328;51.402;0.016;2023-01-28T08:10:39;4.90;99.90
24902;DHT22;31328;51.402;0.016;2023-01-28T08:13:08;4.90;99.90
24902;DHT22;31328;51.402;0.016;2023-01-28T08:15:35;4.90;99.90
24902;DHT22;31328;51.402;0.016;2023-01-28T08:18:02;4.90;99.90
24902;DHT22;31328;51.402;0.016;2023-01-28T08:20:30;4.90;99.90
24902;DHT22;31328;51.402;0.016;2023-01-28T08:23:15;4.90;99.90
24902;DHT22;31328;51.402;0.016;2023-01-28T08:25:42;4.80;99.90
24902;DHT22;31328;51.402;0.016;2023-01-28T08:28:09;4.80;99.90
24902;DHT22;31328;51.402;0.016;2023-01-28T08:30:37;4.90;99.90
24902;DHT22;31328;51.402;0.016;2023-01-28T08:33:05;4.90;99.90
24902;DHT22;31328;51.402;0.016;2023-01-28T08:35:32;4.90;99.90
24902;DHT22;31328;51.402;0.016;2023-01-28T08:38:00;4.90;99.90
24902;DHT22;31328;51.402;0.016;2023-01-28T08:40:27;4.90;99.90
24902;DHT22;31328;51.402;0.016;2023-01-28T08:42:55;5.00;99.90
24902;DHT22;31328;51.402;0.016;2023-01-28T08:45:23;5.00;99.90
24902;DHT22;31328;51.402;0.016;2023-01-28T08:47:55;5.00;99.90
24902;DHT22;31328;51.402;0.016;2023-01-28T08:50:23;5.00;99.90
24902;DHT22;31328;51.402;0.016;2023-01-28T08:52:57;5.00;99.90
24902;DHT22;31328;51.402;0.016;2023-01-28T08:55:25;5.10;99.90
24902;DHT22;31328;51.402;0.016;2023-01-28T08:57:52;5.10;99.90
24902;DHT22;31328;51.402;0.016;2023-01-28T09:00:19;5.10;99.90
24902;DHT22;31328;51.402;0.016;2023-01-28T09:02:46;5.10;99.90
24902;DHT22;31328;51.402;0.016;2023-01-28T09:05:12;5.20;99.90
24902;DHT22;31328;51.402;0.016;2023-01-28T09:07:40;5.20;99.90
24902;DHT22;31328;51.402;0.016;2023-01-28T09:10:07;5.30;99.90
24902;DHT22;31328;51.402;0.016;2023-01-28T09:12:33;5.30;99.90
24902;DHT22;31328;51.402;0.016;2023-01-28T09:14:59;5.30;99.90
24902;DHT22;31328;51.402;0.016;2023-01-28T09:17:26;5.40;99.90
24902;DHT22;31328;51.402;0.016;2023-01-28T09:19:52;5.40;99.90
24902;DHT22;31328;51.402;0.016;2023-01-28T09:22:19;5.50;99.90
24902;DHT22;31328;51.402;0.016;2023-01-28T09:24:45;5.50;99.90
24902;DHT22;31328;51.402;0.016;2023-01-28T09:27:12;5.60;99.90
24902;DHT22;31328;51.402;0.016;2023-01-28T09:29:38;5.60;99.90
24902;DHT22;31328;51.402;0.016;2023-01-28T09:32:05;5.60;99.90
24902;DHT22;31328;51.402;0.016;2023-01-28T09:34:32;5.60;99.90
24902;DHT22;31328;51.402;0.016;2023-01-28T09:36:59;5.70;99.90
24902;DHT22;31328;51.402;0.016;2023-01-28T09:39:25;5.70;99.90
24902;DHT22;31328;51.402;0.016;2023-01-28T09:42:35;5.70;99.90
24902;DHT22;31328;51.402;0.016;2023-01-28T09:45:41;5.80;99.90
24902;DHT22;31328;51.402;0.016;2023-01-28T09:47:51;5.90;99.90
24902;DHT22;31328;51.402;0.016;2023-01-28T09:53:15;6.00;99.90
24902;DHT22;31328;51.402;0.016;2023-01-28T09:55:45;6.00;99.90
24902;DHT22;31328;51.402;0.016;2023-01-28T09:58:14;6.10;99.90
24902;DHT22;31328;51.402;0.016;2023-01-28T10:17:45;6.30;99.70
24902;DHT22;31328;51.402;0.016;2023-01-28T10:25:35;6.50;99.60
24902;DHT22;31328;51.402;0.016;2023-01-28T10:28:01;6.50;99.40
24902;DHT22;31328;51.402;0.016;2023-01-28T10:30:32;6.50;99.50
24902;DHT22;31328;51.402;0.016;2023-01-28T10:33:05;6.60;99.40
24902;DHT22;31328;51.402;0.016;2023-01-28T10:35:38;6.60;99.20
24902;DHT22;31328;51.402;0.016;2023-01-28T10:38:11;6.70;99.00
24902;DHT22;31328;51.402;0.016;2023-01-28T10:40:40;6.70;99.10
24902;DHT22;31328;51.402;0.016;2023-01-28T10:43:07;6.80;99.10
24902;DHT22;31328;51.402;0.016;2023-01-28T10:48:24;6.80;99.10
24902;DHT22;31328;51.402;0.016;2023-01-28T10:50:56;6.90;98.90
24902;DHT22;31328;51.402;0.016;2023-01-28T10:53:44;6.90;98.90
24902;DHT22;31328;51.402;0.016;2023-01-28T10:56:15;7.00;98.90
24902;DHT22;31328;51.402;0.016;2023-01-28T11:04:29;7.20;98.10
24902;DHT22;31328;51.402;0.016;2023-01-28T11:09:30;7.20;97.80
24902;DHT22;31328;51.402;0.016;2023-01-28T11:11:58;7.30;97.90
24902;DHT22;31328;51.402;0.016;2023-01-28T11:14:35;7.40;98.00
24902;DHT22;31328;51.402;0.016;2023-01-28T11:17:01;7.40;97.90
24902;DHT22;31328;51.402;0.016;2023-01-28T11:19:33;7.50;97.90
24902;DHT22;31328;51.402;0.016;2023-01-28T11:22:01;7.50;97.60
24902;DHT22;31328;51.402;0.016;2023-01-28T11:24:30;7.50;97.60
24902;DHT22;31328;51.402;0.016;2023-01-28T11:26:58;7.60;97.60
24902;DHT22;31328;51.402;0.016;2023-01-28T11:29:30;7.60;97.60
24902;DHT22;31328;51.402;0.016;2023-01-28T11:31:58;7.70;97.50
24902;DHT22;31328;51.402;0.016;2023-01-28T11:34:27;7.70;97.60
24902;DHT22;31328;51.402;0.016;2023-01-28T11:37:03;7.70;97.50
24902;DHT22;31328;51.402;0.016;2023-01-28T11:39:30;7.70;97.50
24902;DHT22;31328;51.402;0.016;2023-01-28T11:42:17;7.80;97.30
24902;DHT22;31328;51.402;0.016;2023-01-28T11:44:45;7.80;97.10
24902;DHT22;31328;51.402;0.016;2023-01-28T12:19:43;8.10;96.40
24902;DHT22;31328;51.402;0.016;2023-01-28T12:22:33;8.10;96.20
24902;DHT22;31328;51.402;0.016;2023-01-28T12:25:48;8.10;96.20
24902;DHT22;31328;51.402;0.016;2023-01-28T12:31:29;8.20;96.20
24902;DHT22;31328;51.402;0.016;2023-01-28T12:34:18;8.20;96.00
24902;DHT22;31328;51.402;0.016;2023-01-28T12:42:52;8.30;96.10
24902;DHT22;31328;51.402;0.016;2023-01-28T12:48:12;8.30;96.10
24902;DHT22;31328;51.402;0.016;2023-01-28T12:50:50;8.30;95.90
24902;DHT22;31328;51.402;0.016;2023-01-28T12:53:27;8.40;95.90
24902;DHT22;31328;51.402;0.016;2023-01-28T12:58:51;8.30;95.70
24902;DHT22;31328;51.402;0.016;2023-01-28T13:01:36;8.40;95.70
24902;DHT22;31328;51.402;0.016;2023-01-28T13:07:16;8.30;95.60
24902;DHT22;31328;51.402;0.016;2023-01-28T13:10:21;8.40;95.80
24902;DHT22;31328;51.402;0.016;2023-01-28T13:12:50;8.40;95.70
24902;DHT22;31328;51.402;0.016;2023-01-28T13:15:17;8.40;96.20
24902;DHT22;31328;51.402;0.016;2023-01-28T13:23:05;8.50;95.50
24902;DHT22;31328;51.402;0.016;2023-01-28T13:25:33;8.50;95.80
24902;DHT22;31328;51.402;0.016;2023-01-28T13:28:04;8.50;95.50
24902;DHT22;31328;51.402;0.016;2023-01-28T13:30:46;8.50;95.80
24902;DHT22;31328;51.402;0.016;2023-01-28T13:33:35;8.50;95.40
24902;DHT22;31328;51.402;0.016;2023-01-28T13:36:23;8.50;95.30
24902;DHT22;31328;51.402;0.016;2023-01-28T13:44:33;8.40;95.20
24902;DHT22;31328;51.402;0.016;2023-01-28T13:47:14;8.40;95.20
24902;DHT22;31328;51.402;0.016;2023-01-28T13:49:58;8.40;95.30
24902;DHT22;31328;51.402;0.016;2023-01-28T13:52:29;8.40;95.20
24902;DHT22;31328;51.402;0.016;2023-01-28T13:55:16;8.30;95.50
24902;DHT22;31328;51.402;0.016;2023-01-28T14:00:39;8.30;95.30
24902;DHT22;31328;51.402;0.016;2023-01-28T14:07:07;8.30;95.40
24902;DHT22;31328;51.402;0.016;2023-01-28T14:20:26;8.30;95.50
24902;DHT22;31328;51.402;0.016;2023-01-28T14:23:00;8.30;95.50
24902;DHT22;31328;51.402;0.016;2023-01-28T14:27:57;8.20;95.50
24902;DHT22;31328;51.402;0.016;2023-01-28T14:33:10;8.10;95.40
24902;DHT22;31328;51.402;0.016;2023-01-28T14:35:39;8.20;95.60
24902;DHT22;31328;51.402;0.016;2023-01-28T14:38:16;8.10;95.50
24902;DHT22;31328;51.402;0.016;2023-01-28T14:40:49;8.10;95.50
24902;DHT22;31328;51.402;0.016;2023-01-28T14:43:20;8.10;95.50
24902;DHT22;31328;51.402;0.016;2023-01-28T14:48:23;8.10;95.40
24902;DHT22;31328;51.402;0.016;2023-01-28T14:59:19;8.10;95.50
24902;DHT22;31328;51.402;0.016;2023-01-28T15:01:47;8.10;95.50
24902;DHT22;31328;51.402;0.016;2023-01-28T15:04:40;8.10;95.60
24902;DHT22;31328;51.402;0.016;2023-01-28T15:07:24;8.10;95.70
24902;DHT22;31328;51.402;0.016;2023-01-28T15:10:17;8.10;95.70
24902;DHT22;31328;51.402;0.016;2023-01-28T15:13:02;8.10;95.80
24902;DHT22;31328;51.402;0.016;2023-01-28T15:15:33;8.10;95.80
24902;DHT22;31328;51.402;0.016;2023-01-28T15:18:04;8.10;95.70
24902;DHT22;31328;51.402;0.016;2023-01-28T15:20:31;7.90;95.70
24902;DHT22;31328;51.402;0.016;2023-01-28T15:22:59;8.10;95.80
24902;DHT22;31328;51.402;0.016;2023-01-28T15:25:28;8.00;95.90
24902;DHT22;31328;51.402;0.016;2023-01-28T15:27:58;8.10;95.90
24902;DHT22;31328;51.402;0.016;2023-01-28T15:30:28;8.00;95.60
24902;DHT22;31328;51.402;0.016;2023-01-28T15:32:58;8.00;95.80
24902;DHT22;31328;51.402;0.016;2023-01-28T15:35:24;8.00;95.80
24902;DHT22;31328;51.402;0.016;2023-01-28T15:37:52;8.00;95.90
24902;DHT22;31328;51.402;0.016;2023-01-28T15:40:20;7.90;95.90
24902;DHT22;31328;51.402;0.016;2023-01-28T15:42:50;8.00;95.90
24902;DHT22;31328;51.402;0.016;2023-01-28T15:45:20;8.00;95.90
24902;DHT22;31328;51.402;0.016;2023-01-28T15:47:48;7.90;95.80
24902;DHT22;31328;51.402;0.016;2023-01-28T15:50:21;7.90;95.80
24902;DHT22;31328;51.402;0.016;2023-01-28T15:52:48;7.90;95.90
24902;DHT22;31328;51.402;0.016;2023-01-28T15:55:37;7.90;95.80
24902;DHT22;31328;51.402;0.016;2023-01-28T16:00:46;7.90;96.10
24902;DHT22;31328;51.402;0.016;2023-01-28T16:03:18;7.80;96.10
24902;DHT22;31328;51.402;0.016;2023-01-28T16:05:55;7.80;96.30
24902;DHT22;31328;51.402;0.016;2023-01-28T16:11:12;7.80;96.20
24902;DHT22;31328;51.402;0.016;2023-01-28T16:13:45;7.80;96.20
24902;DHT22;31328;51.402;0.016;2023-01-28T16:16:11;7.80;96.20
24902;DHT22;31328;51.402;0.016;2023-01-28T16:18:47;7.70;96.20
24902;DHT22;31328;51.402;0.016;2023-01-28T16:21:34;7.80;96.20
24902;DHT22;31328;51.402;0.016;2023-01-28T16:24:04;7.70;96.20
24902;DHT22;31328;51.402;0.016;2023-01-28T16:26:33;7.70;96.30
24902;DHT22;31328;51.402;0.016;2023-01-28T16:29:13;7.70;96.40
24902;DHT22;31328;51.402;0.016;2023-01-28T16:31:41;7.70;96.30
24902;DHT22;31328;51.402;0.016;2023-01-28T16:34:09;7.60;96.40
24902;DHT22;31328;51.402;0.016;2023-01-28T16:36:36;7.60;96.50
24902;DHT22;31328;51.402;0.016;2023-01-28T16:39:02;7.60;96.70
24902;DHT22;31328;51.402;0.016;2023-01-28T16:41:32;7.60;96.50
24902;DHT22;31328;51.402;0.016;2023-01-28T16:43:59;7.60;96.60
24902;DHT22;31328;51.402;0.016;2023-01-28T16:46:31;7.60;96.80
24902;DHT22;31328;51.402;0.016;2023-01-28T16:49:01;7.50;96.50
24902;DHT22;31328;51.402;0.016;2023-01-28T16:51:27;7.50;96.60
24902;DHT22;31328;51.402;0.016;2023-01-28T16:53:54;7.50;97.00
24902;DHT22;31328;51.402;0.016;2023-01-28T16:56:23;7.50;96.70
24902;DHT22;31328;51.402;0.016;2023-01-28T16:58:50;7.50;96.80
24902;DHT22;31328;51.402;0.016;2023-01-28T17:01:17;7.50;96.80
24902;DHT22;31328;51.402;0.016;2023-01-28T17:03:44;7.50;96.80
24902;DHT22;31328;51.402;0.016;2023-01-28T17:06:16;7.50;96.90
24902;DHT22;31328;51.402;0.016;2023-01-28T17:08:43;7.40;96.90
24902;DHT22;31328;51.402;0.016;2023-01-28T17:11:11;7.40;96.90
24902;DHT22;31328;51.402;0.016;2023-01-28T17:13:39;7.40;96.90
24902;DHT22;31328;51.402;0.016;2023-01-28T17:16:06;7.40;96.90
24902;DHT22;31328;51.402;0.016;2023-01-28T17:18:32;7.40;97.00
24902;DHT22;31328;51.402;0.016;2023-01-28T17:21:05;7.40;97.00
24902;DHT22;31328;51.402;0.016;2023-01-28T17:23:32;7.40;97.00
24902;DHT22;31328;51.402;0.016;2023-01-28T17:26:04;7.40;97.10
24902;DHT22;31328;51.402;0.016;2023-01-28T17:28:30;7.40;97.10
24902;DHT22;31328;51.402;0.016;2023-01-28T17:30:57;7.40;97.20
24902;DHT22;31328;51.402;0.016;2023-01-28T17:33:23;7.40;97.10
24902;DHT22;31328;51.402;0.016;2023-01-28T17:35:49;7.40;97.20
24902;DHT22;31328;51.402;0.016;2023-01-28T17:38:16;7.40;97.20
24902;DHT22;31328;51.402;0.016;2023-01-28T17:40:42;7.40;97.20
24902;DHT22;31328;51.402;0.016;2023-01-28T17:43:09;7.30;97.30
24902;DHT22;31328;51.402;0.016;2023-01-28T17:45:35;7.30;97.30
24902;DHT22;31328;51.402;0.016;2023-01-28T17:48:01;7.30;97.30
24902;DHT22;31328;51.402;0.016;2023-01-28T17:50:27;7.30;97.40
24902;DHT22;31328;51.402;0.016;2023-01-28T17:52:55;7.30;97.40
24902;DHT22;31328;51.402;0.016;2023-01-28T17:55:22;7.30;97.40
24902;DHT22;31328;51.402;0.016;2023-01-28T17:57:49;7.30;97.50
24902;DHT22;31328;51.402;0.016;2023-01-28T18:00:16;7.30;97.40
24902;DHT22;31328;51.402;0.016;2023-01-28T18:02:42;7.30;97.50
24902;DHT22;31328;51.402;0.016;2023-01-28T18:05:09;7.20;97.50
24902;DHT22;31328;51.402;0.016;2023-01-28T18:07:35;7.30;97.60
24902;DHT22;31328;51.402;0.016;2023-01-28T18:10:02;7.30;97.70
24902;DHT22;31328;51.402;0.016;2023-01-28T18:12:28;7.30;97.70
24902;DHT22;31328;51.402;0.016;2023-01-28T18:14:54;7.30;97.70
24902;DHT22;31328;51.402;0.016;2023-01-28T18:17:21;7.30;97.70
24902;DHT22;31328;51.402;0.016;2023-01-28T18:19:51;7.20;97.70
24902;DHT22;31328;51.402;0.016;2023-01-28T18:22:18;7.30;97.70
24902;DHT22;31328;51.402;0.016;2023-01-28T18:24:44;7.20;97.60
24902;DHT22;31328;51.402;0.016;2023-01-28T18:27:10;7.30;97.70
24902;DHT22;31328;51.402;0.016;2023-01-28T18:29:37;7.30;97.70
24902;DHT22;31328;51.402;0.016;2023-01-28T18:32:04;7.30;97.80
24902;DHT22;31328;51.402;0.016;2023-01-28T18:34:31;7.30;97.80
24902;DHT22;31328;51.402;0.016;2023-01-28T18:36:58;7.30;97.80
24902;DHT22;31328;51.402;0.016;2023-01-28T18:39:26;7.30;97.80
24902;DHT22;31328;51.402;0.016;2023-01-28T18:41:53;7.30;97.90
24902;DHT22;31328;51.402;0.016;2023-01-28T18:44:24;7.30;97.90
24902;DHT22;31328;51.402;0.016;2023-01-28T18:46:51;7.20;98.00
24902;DHT22;31328;51.402;0.016;2023-01-28T18:49:17;7.20;98.00
24902;DHT22;31328;51.402;0.016;2023-01-28T18:51:43;7.20;98.00
24902;DHT22;31328;51.402;0.016;2023-01-28T18:54:12;7.20;98.10
24902;DHT22;31328;51.402;0.016;2023-01-28T18:56:39;7.20;98.10
24902;DHT22;31328;51.402;0.016;2023-01-28T18:59:09;7.20;98.00